sensor_id;sensor_type;location;lat;lon;timestamp;P1;durP1;ratioP1;P2;durP2;ratioP2
16770;SDS011;8503;52.472;13.344;2022-09-09T00:01:03;6.55;;;5.35;;
16770;SDS011;8503;52.472;13.344;2022-09-09T00:02:31;10.48;;;4.97;;
16770;SDS011;8503;52.472;13.344;2022-09-09T00:03:55;7.90;;;5.07;;
16770;SDS011;8503;52.472;13.344;2022-09-09T00:05:23;6.43;;;5.28;;
16770;SDS011;8503;52.472;13.344;2022-09-09T00:06:54;6.47;;;4.75;;
16770;SDS011;8503;52.472;13.344;2022-09-09T00:08:25;8.63;;;4.78;;
16770;SDS011;8503;52.472;13.344;2022-09-09T00:09:57;7.18;;;5.43;;
16770;SDS011;8503;52.472;13.344;2022-09-09T00:11:26;8.77;;;4.90;;
16770;SDS011;8503;52.472;13.344;2022-09-09T00:12:54;8.20;;;5.22;;
16770;SDS011;8503;52.472;13.344;2022-09-09T00:14:23;7.90;;;5.47;;
16770;SDS011;8503;52.472;13.344;2022-09-09T00:15:55;13.23;;;5.32;;
16770;SDS011;8503;52.472;13.344;2022-09-09T00:17:26;8.77;;;5.97;;
16770;SDS011;8503;52.472;13.344;2022-09-09T00:18:56;8.32;;;5.63;;
16770;SDS011;8503;52.472;13.344;2022-09-09T00:20:25;9.38;;;5.45;;
16770;SDS011;8503;52.472;13.344;2022-09-09T00:21:55;10.77;;;6.57;;
16770;SDS011;8503;52.472;13.344;2022-09-09T00:23:30;7.43;;;6.20;;
16770;SDS011;8503;52.472;13.344;2022-09-09T00:24:55;7.90;;;5.75;;
16770;SDS011;8503;52.472;13.344;2022-09-09T00:26:20;8.05;;;5.38;;
16770;SDS011;8503;52.472;13.344;2022-09-09T00:27:45;7.35;;;5.20;;
16770;SDS011;8503;52.472;13.344;2022-09-09T00:29:10;7.07;;;5.45;;
16770;SDS011;8503;52.472;13.344;2022-09-09T00:30:37;7.18;;;6.10;;
16770;SDS011;8503;52.472;13.344;2022-09-09T00:32:09;9.57;;;6.25;;
16770;SDS011;8503;52.472;13.344;2022-09-09T00:33:35;6.72;;;5.25;;
16770;SDS011;8503;52.472;13.344;2022-09-09T00:35:00;7.30;;;6.28;;
16770;SDS011;8503;52.472;13.344;2022-09-09T00:36:24;7.15;;;5.82;;
16770;SDS011;8503;52.472;13.344;2022-09-09T00:37:51;9.73;;;5.57;;
16770;SDS011;8503;52.472;13.344;2022-09-09T00:39:22;7.93;;;5.70;;
16770;SDS011;8503;52.472;13.344;2022-09-09T00:40:49;10.68;;;6.07;;
16770;SDS011;8503;52.472;13.344;2022-09-09T00:42:14;9.80;;;5.75;;
16770;SDS011;8503;52.472;13.344;2022-09-09T00:43:39;10.15;;;5.90;;
16770;SDS011;8503;52.472;13.344;2022-09-09T00:45:07;6.93;;;5.43;;
16770;SDS011;8503;52.472;13.344;2022-09-09T00:46:50;9.07;;;6.22;;
16770;SDS011;8503;52.472;13.344;2022-09-09T00:48:19;13.77;;;6.28;;
16770;SDS011;8503;52.472;13.344;2022-09-09T00:49:47;12.57;;;6.57;;
16770;SDS011;8503;52.472;13.344;2022-09-09T00:51:24;8.43;;;5.80;;
16770;SDS011;8503;52.472;13.344;2022-09-09T00:52:54;8.43;;;6.30;;
16770;SDS011;8503;52.472;13.344;2022-09-09T00:54:27;15.07;;;6.25;;
16770;SDS011;8503;52.472;13.344;2022-09-09T00:55:58;9.35;;;6.28;;
16770;SDS011;8503;52.472;13.344;2022-09-09T00:57:26;8.07;;;6.43;;
16770;SDS011;8503;52.472;13.344;2022-09-09T00:58:52;7.78;;;5.97;;
16770;SDS011;8503;52.472;13.344;2022-09-09T01:00:21;11.23;;;6.25;;
16770;SDS011;8503;52.472;13.344;2022-09-09T01:01:45;8.23;;;5.68;;
16770;SDS011;8503;52.472;13.344;2022-09-09T01:03:16;8.38;;;5.65;;
16770;SDS011;8503;52.472;13.344;2022-09-09T01:04:45;13.32;;;6.40;;
16770;SDS011;8503;52.472;13.344;2022-09-09T01:06:19;11.32;;;5.70;;
16770;SDS011;8503;52.472;13.344;2022-09-09T01:07:45;13.85;;;6.45;;
16770;SDS011;8503;52.472;13.344;2022-09-09T01:09:17;11.48;;;5.80;;
16770;SDS011;8503;52.472;13.344;2022-09-09T01:10:47;8.50;;;5.40;;
16770;SDS011;8503;52.472;13.344;2022-09-09T01:12:15;8.38;;;6.15;;
16770;SDS011;8503;52.472;13.344;2022-09-09T01:13:39;7.47;;;5.97;;
16770;SDS011;8503;52.472;13.344;2022-09-09T01:15:10;7.80;;;5.82;;
16770;SDS011;8503;52.472;13.344;2022-09-09T01:16:34;9.85;;;5.63;;
16770;SDS011;8503;52.472;13.344;2022-09-09T01:17:58;8.23;;;6.00;;
16770;SDS011;8503;52.472;13.344;2022-09-09T01:19:27;8.93;;;6.05;;
16770;SDS011;8503;52.472;13.344;2022-09-09T01:21:02;7.93;;;5.80;;
16770;SDS011;8503;52.472;13.344;2022-09-09T01:22:33;10.55;;;5.50;;
16770;SDS011;8503;52.472;13.344;2022-09-09T01:24:01;14.48;;;6.15;;
16770;SDS011;8503;52.472;13.344;2022-09-09T01:26:03;8.20;;;5.72;;
16770;SDS011;8503;52.472;13.344;2022-09-09T01:27:32;6.63;;;5.20;;
16770;SDS011;8503;52.472;13.344;2022-09-09T01:28:57;7.15;;;5.63;;
16770;SDS011;8503;52.472;13.344;2022-09-09T01:30:19;10.18;;;6.07;;
16770;SDS011;8503;52.472;13.344;2022-09-09T01:31:51;10.07;;;5.25;;
16770;SDS011;8503;52.472;13.344;2022-09-09T01:33:16;10.35;;;5.57;;
16770;SDS011;8503;52.472;13.344;2022-09-09T01:34:39;10.85;;;5.68;;
16770;SDS011;8503;52.472;13.344;2022-09-09T01:36:03;8.35;;;6.10;;
16770;SDS011;8503;52.472;13.344;2022-09-09T01:37:29;9.73;;;5.60;;
16770;SDS011;8503;52.472;13.344;2022-09-09T01:38:52;13.15;;;5.90;;
16770;SDS011;8503;52.472;13.344;2022-09-09T01:40:15;10.32;;;5.60;;
16770;SDS011;8503;52.472;13.344;2022-09-09T01:41:39;9.05;;;6.18;;
16770;SDS011;8503;52.472;13.344;2022-09-09T01:43:03;8.80;;;5.63;;
16770;SDS011;8503;52.472;13.344;2022-09-09T01:44:26;8.98;;;5.65;;
16770;SDS011;8503;52.472;13.344;2022-09-09T01:45:50;17.42;;;6.47;;
16770;SDS011;8503;52.472;13.344;2022-09-09T01:47:15;8.20;;;5.90;;
16770;SDS011;8503;52.472;13.344;2022-09-09T01:48:38;7.85;;;5.20;;
16770;SDS011;8503;52.472;13.344;2022-09-09T01:50:02;8.88;;;6.03;;
16770;SDS011;8503;52.472;13.344;2022-09-09T01:51:26;8.27;;;5.95;;
16770;SDS011;8503;52.472;13.344;2022-09-09T01:52:51;8.93;;;6.00;;
16770;SDS011;8503;52.472;13.344;2022-09-09T01:54:18;8.68;;;5.28;;
16770;SDS011;8503;52.472;13.344;2022-09-09T01:55:45;6.68;;;5.50;;
16770;SDS011;8503;52.472;13.344;2022-09-09T01:57:15;9.23;;;5.80;;
16770;SDS011;8503;52.472;13.344;2022-09-09T01:58:45;9.38;;;5.18;;
16770;SDS011;8503;52.472;13.344;2022-09-09T02:00:14;9.45;;;5.72;;
16770;SDS011;8503;52.472;13.344;2022-09-09T02:01:41;7.82;;;5.35;;
16770;SDS011;8503;52.472;13.344;2022-09-09T02:03:09;7.30;;;5.40;;
16770;SDS011;8503;52.472;13.344;2022-09-09T02:04:37;12.82;;;5.95;;
16770;SDS011;8503;52.472;13.344;2022-09-09T02:06:04;8.65;;;5.97;;
16770;SDS011;8503;52.472;13.344;2022-09-09T02:07:36;11.05;;;5.88;;
16770;SDS011;8503;52.472;13.344;2022-09-09T02:09:01;8.00;;;5.28;;
16770;SDS011;8503;52.472;13.344;2022-09-09T02:10:28;10.75;;;5.72;;
16770;SDS011;8503;52.472;13.344;2022-09-09T02:11:57;9.20;;;6.00;;
16770;SDS011;8503;52.472;13.344;2022-09-09T02:13:28;9.70;;;5.40;;
16770;SDS011;8503;52.472;13.344;2022-09-09T02:14:54;9.07;;;4.97;;
16770;SDS011;8503;52.472;13.344;2022-09-09T02:16:21;6.95;;;5.20;;
16770;SDS011;8503;52.472;13.344;2022-09-09T02:17:47;7.88;;;5.88;;
16770;SDS011;8503;52.472;13.344;2022-09-09T02:19:13;8.73;;;5.32;;
16770;SDS011;8503;52.472;13.344;2022-09-09T02:20:47;8.10;;;5.50;;
16770;SDS011;8503;52.472;13.344;2022-09-09T02:22:10;7.63;;;5.25;;
16770;SDS011;8503;52.472;13.344;2022-09-09T02:23:33;10.90;;;5.60;;
16770;SDS011;8503;52.472;13.344;2022-09-09T02:24:57;8.88;;;6.07;;
16770;SDS011;8503;52.472;13.344;2022-09-09T02:26:22;9.57;;;6.13;;
16770;SDS011;8503;52.472;13.344;2022-09-09T02:27:47;7.03;;;4.97;;
16770;SDS011;8503;52.472;13.344;2022-09-09T02:29:14;9.15;;;5.57;;
16770;SDS011;8503;52.472;13.344;2022-09-09T02:30:37;8.27;;;5.60;;
16770;SDS011;8503;52.472;13.344;2022-09-09T02:32:04;9.93;;;6.10;;
16770;SDS011;8503;52.472;13.344;2022-09-09T02:33:30;7.50;;;5.80;;
16770;SDS011;8503;52.472;13.344;2022-09-09T02:34:58;8.20;;;4.93;;
16770;SDS011;8503;52.472;13.344;2022-09-09T02:36:22;9.32;;;5.97;;
16770;SDS011;8503;52.472;13.344;2022-09-09T02:37:47;7.63;;;5.32;;
16770;SDS011;8503;52.472;13.344;2022-09-09T02:39:12;9.45;;;5.68;;
16770;SDS011;8503;52.472;13.344;2022-09-09T02:40:36;8.18;;;5.72;;
16770;SDS011;8503;52.472;13.344;2022-09-09T02:41:58;9.13;;;5.60;;
16770;SDS011;8503;52.472;13.344;2022-09-09T02:43:22;8.93;;;5.68;;
16770;SDS011;8503;52.472;13.344;2022-09-09T02:44:46;8.02;;;5.32;;
16770;SDS011;8503;52.472;13.344;2022-09-09T02:46:14;8.18;;;5.53;;
16770;SDS011;8503;52.472;13.344;2022-09-09T02:47:48;11.00;;;4.95;;
16770;SDS011;8503;52.472;13.344;2022-09-09T02:49:16;8.35;;;5.55;;
16770;SDS011;8503;52.472;13.344;2022-09-09T02:50:43;12.45;;;5.97;;
16770;SDS011;8503;52.472;13.344;2022-09-09T02:52:13;7.10;;;5.38;;
16770;SDS011;8503;52.472;13.344;2022-09-09T02:53:39;10.05;;;5.32;;
16770;SDS011;8503;52.472;13.344;2022-09-09T02:55:11;9.68;;;6.20;;
16770;SDS011;8503;52.472;13.344;2022-09-09T02:56:38;8.50;;;5.70;;
16770;SDS011;8503;52.472;13.344;2022-09-09T02:58:07;11.10;;;5.80;;
16770;SDS011;8503;52.472;13.344;2022-09-09T02:59:32;8.90;;;5.55;;
16770;SDS011;8503;52.472;13.344;2022-09-09T03:00:56;8.85;;;5.65;;
16770;SDS011;8503;52.472;13.344;2022-09-09T03:02:22;12.07;;;6.32;;
16770;SDS011;8503;52.472;13.344;2022-09-09T03:03:46;9.35;;;6.15;;
16770;SDS011;8503;52.472;13.344;2022-09-09T03:05:09;12.65;;;5.85;;
16770;SDS011;8503;52.472;13.344;2022-09-09T03:06:34;10.02;;;6.15;;
16770;SDS011;8503;52.472;13.344;2022-09-09T03:07:57;8.68;;;5.82;;
16770;SDS011;8503;52.472;13.344;2022-09-09T03:09:20;10.07;;;5.50;;
16770;SDS011;8503;52.472;13.344;2022-09-09T03:10:43;8.55;;;5.63;;
16770;SDS011;8503;52.472;13.344;2022-09-09T03:12:06;8.40;;;5.47;;
16770;SDS011;8503;52.472;13.344;2022-09-09T03:13:29;9.43;;;6.18;;
16770;SDS011;8503;52.472;13.344;2022-09-09T03:14:52;8.20;;;5.78;;
16770;SDS011;8503;52.472;13.344;2022-09-09T03:16:16;11.23;;;5.63;;
16770;SDS011;8503;52.472;13.344;2022-09-09T03:17:40;13.30;;;5.47;;
16770;SDS011;8503;52.472;13.344;2022-09-09T03:19:02;11.43;;;5.72;;
16770;SDS011;8503;52.472;13.344;2022-09-09T03:20:28;9.32;;;5.13;;
16770;SDS011;8503;52.472;13.344;2022-09-09T03:21:55;8.00;;;5.70;;
16770;SDS011;8503;52.472;13.344;2022-09-09T03:23:19;7.30;;;5.05;;
16770;SDS011;8503;52.472;13.344;2022-09-09T03:24:44;10.65;;;5.85;;
16770;SDS011;8503;52.472;13.344;2022-09-09T03:26:09;12.40;;;5.68;;
16770;SDS011;8503;52.472;13.344;2022-09-09T03:27:33;9.30;;;5.80;;
16770;SDS011;8503;52.472;13.344;2022-09-09T03:29:02;8.63;;;5.78;;
16770;SDS011;8503;52.472;13.344;2022-09-09T03:30:28;9.18;;;5.65;;
16770;SDS011;8503;52.472;13.344;2022-09-09T03:31:52;7.47;;;5.40;;
16770;SDS011;8503;52.472;13.344;2022-09-09T03:33:15;10.68;;;6.18;;
16770;SDS011;8503;52.472;13.344;2022-09-09T03:34:38;8.95;;;5.22;;
16770;SDS011;8503;52.472;13.344;2022-09-09T03:36:01;7.47;;;5.45;;
16770;SDS011;8503;52.472;13.344;2022-09-09T03:37:25;9.65;;;5.63;;
16770;SDS011;8503;52.472;13.344;2022-09-09T03:38:48;11.68;;;5.28;;
16770;SDS011;8503;52.472;13.344;2022-09-09T03:40:11;9.88;;;5.80;;
16770;SDS011;8503;52.472;13.344;2022-09-09T03:41:35;9.00;;;5.30;;
16770;SDS011;8503;52.472;13.344;2022-09-09T03:42:58;10.73;;;5.18;;
16770;SDS011;8503;52.472;13.344;2022-09-09T03:44:21;7.57;;;5.07;;
16770;SDS011;8503;52.472;13.344;2022-09-09T03:45:45;8.30;;;5.25;;
16770;SDS011;8503;52.472;13.344;2022-09-09T03:47:10;8.68;;;5.88;;
16770;SDS011;8503;52.472;13.344;2022-09-09T03:48:32;9.48;;;5.10;;
16770;SDS011;8503;52.472;13.344;2022-09-09T03:49:56;9.23;;;5.38;;
16770;SDS011;8503;52.472;13.344;2022-09-09T03:51:18;7.68;;;5.43;;
16770;SDS011;8503;52.472;13.344;2022-09-09T03:52:42;9.73;;;5.32;;
16770;SDS011;8503;52.472;13.344;2022-09-09T03:54:04;8.05;;;5.22;;
16770;SDS011;8503;52.472;13.344;2022-09-09T03:55:29;6.97;;;5.25;;
16770;SDS011;8503;52.472;13.344;2022-09-09T03:56:51;9.63;;;5.40;;
16770;SDS011;8503;52.472;13.344;2022-09-09T03:58:15;7.88;;;5.10;;
16770;SDS011;8503;52.472;13.344;2022-09-09T03:59:39;6.80;;;4.57;;
16770;SDS011;8503;52.472;13.344;2022-09-09T04:01:03;7.75;;;5.07;;
16770;SDS011;8503;52.472;13.344;2022-09-09T04:02:29;10.25;;;4.95;;
16770;SDS011;8503;52.472;13.344;2022-09-09T04:03:52;7.22;;;5.07;;
16770;SDS011;8503;52.472;13.344;2022-09-09T04:05:19;9.77;;;5.32;;
16770;SDS011;8503;52.472;13.344;2022-09-09T04:06:42;6.47;;;4.95;;
16770;SDS011;8503;52.472;13.344;2022-09-09T04:08:06;6.45;;;4.60;;
16770;SDS011;8503;52.472;13.344;2022-09-09T04:09:29;9.27;;;4.88;;
16770;SDS011;8503;52.472;13.344;2022-09-09T04:10:53;6.75;;;4.32;;
16770;SDS011;8503;52.472;13.344;2022-09-09T04:12:19;7.57;;;4.68;;
16770;SDS011;8503;52.472;13.344;2022-09-09T04:13:43;7.38;;;5.07;;
16770;SDS011;8503;52.472;13.344;2022-09-09T04:15:07;10.05;;;6.07;;
16770;SDS011;8503;52.472;13.344;2022-09-09T04:16:31;12.48;;;4.80;;
16770;SDS011;8503;52.472;13.344;2022-09-09T04:17:57;11.43;;;5.47;;
16770;SDS011;8503;52.472;13.344;2022-09-09T04:19:20;8.73;;;4.82;;
16770;SDS011;8503;52.472;13.344;2022-09-09T04:20:45;9.85;;;5.63;;
16770;SDS011;8503;52.472;13.344;2022-09-09T04:22:08;8.40;;;5.95;;
16770;SDS011;8503;52.472;13.344;2022-09-09T04:23:31;9.05;;;5.28;;
16770;SDS011;8503;52.472;13.344;2022-09-09T04:24:54;12.98;;;5.35;;
16770;SDS011;8503;52.472;13.344;2022-09-09T04:26:18;10.88;;;5.43;;
16770;SDS011;8503;52.472;13.344;2022-09-09T04:27:42;7.18;;;4.35;;
16770;SDS011;8503;52.472;13.344;2022-09-09T04:29:05;10.80;;;5.45;;
16770;SDS011;8503;52.472;13.344;2022-09-09T04:30:28;10.43;;;5.10;;
16770;SDS011;8503;52.472;13.344;2022-09-09T04:31:52;6.72;;;4.40;;
16770;SDS011;8503;52.472;13.344;2022-09-09T04:33:17;13.02;;;5.25;;
16770;SDS011;8503;52.472;13.344;2022-09-09T04:34:40;8.68;;;4.53;;
16770;SDS011;8503;52.472;13.344;2022-09-09T04:36:03;11.60;;;4.68;;
16770;SDS011;8503;52.472;13.344;2022-09-09T04:37:27;7.13;;;4.70;;
16770;SDS011;8503;52.472;13.344;2022-09-09T04:38:50;8.38;;;4.88;;
16770;SDS011;8503;52.472;13.344;2022-09-09T04:40:13;10.77;;;5.57;;
16770;SDS011;8503;52.472;13.344;2022-09-09T04:41:36;12.40;;;5.78;;
16770;SDS011;8503;52.472;13.344;2022-09-09T04:42:59;10.35;;;5.18;;
16770;SDS011;8503;52.472;13.344;2022-09-09T04:44:22;9.02;;;5.32;;
16770;SDS011;8503;52.472;13.344;2022-09-09T04:45:46;7.57;;;4.90;;
16770;SDS011;8503;52.472;13.344;2022-09-09T04:47:10;7.07;;;4.50;;
16770;SDS011;8503;52.472;13.344;2022-09-09T04:48:36;8.73;;;5.03;;
16770;SDS011;8503;52.472;13.344;2022-09-09T04:50:00;7.10;;;4.85;;
16770;SDS011;8503;52.472;13.344;2022-09-09T04:51:23;7.82;;;5.28;;
16770;SDS011;8503;52.472;13.344;2022-09-09T04:52:47;15.00;;;4.88;;
16770;SDS011;8503;52.472;13.344;2022-09-09T04:54:11;7.15;;;4.25;;
16770;SDS011;8503;52.472;13.344;2022-09-09T04:55:34;8.38;;;4.75;;
16770;SDS011;8503;52.472;13.344;2022-09-09T04:56:57;7.10;;;4.95;;
16770;SDS011;8503;52.472;13.344;2022-09-09T04:58:20;9.25;;;4.95;;
16770;SDS011;8503;52.472;13.344;2022-09-09T04:59:43;7.95;;;4.82;;
16770;SDS011;8503;52.472;13.344;2022-09-09T05:01:09;7.75;;;4.35;;
16770;SDS011;8503;52.472;13.344;2022-09-09T05:02:37;9.43;;;3.88;;
16770;SDS011;8503;52.472;13.344;2022-09-09T05:04:02;5.47;;;4.13;;
16770;SDS011;8503;52.472;13.344;2022-09-09T05:05:25;8.15;;;4.38;;
16770;SDS011;8503;52.472;13.344;2022-09-09T05:06:49;10.43;;;5.20;;
16770;SDS011;8503;52.472;13.344;2022-09-09T05:08:12;7.18;;;3.92;;
16770;SDS011;8503;52.472;13.344;2022-09-09T05:09:35;6.28;;;4.50;;
16770;SDS011;8503;52.472;13.344;2022-09-09T05:10:58;6.10;;;4.40;;
16770;SDS011;8503;52.472;13.344;2022-09-09T05:12:21;4.60;;;4.13;;
16770;SDS011;8503;52.472;13.344;2022-09-09T05:13:44;5.07;;;4.22;;
16770;SDS011;8503;52.472;13.344;2022-09-09T05:15:09;16.85;;;4.43;;
16770;SDS011;8503;52.472;13.344;2022-09-09T05:16:31;6.80;;;3.42;;
16770;SDS011;8503;52.472;13.344;2022-09-09T05:17:56;9.55;;;3.72;;
16770;SDS011;8503;52.472;13.344;2022-09-09T05:19:21;4.82;;;3.53;;
16770;SDS011;8503;52.472;13.344;2022-09-09T05:20:45;4.40;;;2.97;;
16770;SDS011;8503;52.472;13.344;2022-09-09T05:22:08;7.97;;;3.30;;
16770;SDS011;8503;52.472;13.344;2022-09-09T05:23:33;4.45;;;3.05;;
16770;SDS011;8503;52.472;13.344;2022-09-09T05:24:56;5.20;;;3.10;;
16770;SDS011;8503;52.472;13.344;2022-09-09T05:26:20;3.45;;;3.15;;
16770;SDS011;8503;52.472;13.344;2022-09-09T05:27:45;7.03;;;2.85;;
16770;SDS011;8503;52.472;13.344;2022-09-09T05:29:07;7.03;;;3.42;;
16770;SDS011;8503;52.472;13.344;2022-09-09T05:30:31;4.25;;;2.67;;
16770;SDS011;8503;52.472;13.344;2022-09-09T05:31:54;7.88;;;3.20;;
16770;SDS011;8503;52.472;13.344;2022-09-09T05:33:18;4.07;;;2.83;;
16770;SDS011;8503;52.472;13.344;2022-09-09T05:34:43;4.57;;;3.05;;
16770;SDS011;8503;52.472;13.344;2022-09-09T05:36:08;4.72;;;2.70;;
16770;SDS011;8503;52.472;13.344;2022-09-09T05:37:34;3.47;;;2.88;;
16770;SDS011;8503;52.472;13.344;2022-09-09T05:38:57;3.90;;;2.50;;
16770;SDS011;8503;52.472;13.344;2022-09-09T05:40:22;4.65;;;2.70;;
16770;SDS011;8503;52.472;13.344;2022-09-09T05:41:46;4.03;;;2.38;;
16770;SDS011;8503;52.472;13.344;2022-09-09T05:43:09;4.43;;;2.47;;
16770;SDS011;8503;52.472;13.344;2022-09-09T05:44:33;5.25;;;2.75;;
16770;SDS011;8503;52.472;13.344;2022-09-09T05:46:00;6.55;;;2.67;;
16770;SDS011;8503;52.472;13.344;2022-09-09T05:47:25;3.58;;;2.15;;
16770;SDS011;8503;52.472;13.344;2022-09-09T05:48:49;3.40;;;2.00;;
16770;SDS011;8503;52.472;13.344;2022-09-09T05:50:14;8.98;;;2.40;;
16770;SDS011;8503;52.472;13.344;2022-09-09T05:51:37;3.58;;;2.05;;
16770;SDS011;8503;52.472;13.344;2022-09-09T05:53:01;7.68;;;1.95;;
16770;SDS011;8503;52.472;13.344;2022-09-09T05:54:25;3.88;;;2.15;;
16770;SDS011;8503;52.472;13.344;2022-09-09T05:55:48;5.35;;;2.10;;
16770;SDS011;8503;52.472;13.344;2022-09-09T05:57:11;5.53;;;2.20;;
16770;SDS011;8503;52.472;13.344;2022-09-09T05:58:36;3.35;;;2.22;;
16770;SDS011;8503;52.472;13.344;2022-09-09T05:59:59;2.65;;;1.88;;
16770;SDS011;8503;52.472;13.344;2022-09-09T06:01:24;8.13;;;2.92;;
16770;SDS011;8503;52.472;13.344;2022-09-09T06:02:50;5.28;;;3.17;;
16770;SDS011;8503;52.472;13.344;2022-09-09T06:04:13;5.35;;;2.70;;
16770;SDS011;8503;52.472;13.344;2022-09-09T06:05:38;9.15;;;3.13;;
16770;SDS011;8503;52.472;13.344;2022-09-09T06:07:02;3.85;;;2.30;;
16770;SDS011;8503;52.472;13.344;2022-09-09T06:08:25;2.42;;;1.70;;
16770;SDS011;8503;52.472;13.344;2022-09-09T06:09:48;3.08;;;2.13;;
16770;SDS011;8503;52.472;13.344;2022-09-09T06:11:13;4.47;;;1.95;;
16770;SDS011;8503;52.472;13.344;2022-09-09T06:12:36;2.95;;;1.95;;
16770;SDS011;8503;52.472;13.344;2022-09-09T06:14:00;2.78;;;2.10;;
16770;SDS011;8503;52.472;13.344;2022-09-09T06:15:23;4.65;;;1.77;;
16770;SDS011;8503;52.472;13.344;2022-09-09T06:16:48;4.82;;;1.85;;
16770;SDS011;8503;52.472;13.344;2022-09-09T06:18:11;2.67;;;1.77;;
16770;SDS011;8503;52.472;13.344;2022-09-09T06:19:35;3.55;;;1.90;;
16770;SDS011;8503;52.472;13.344;2022-09-09T06:21:00;4.80;;;1.85;;
16770;SDS011;8503;52.472;13.344;2022-09-09T06:22:24;5.95;;;1.70;;
16770;SDS011;8503;52.472;13.344;2022-09-09T06:23:48;7.57;;;2.40;;
16770;SDS011;8503;52.472;13.344;2022-09-09T06:25:12;6.18;;;2.03;;
16770;SDS011;8503;52.472;13.344;2022-09-09T06:26:36;4.05;;;2.10;;
16770;SDS011;8503;52.472;13.344;2022-09-09T06:28:01;3.35;;;2.00;;
16770;SDS011;8503;52.472;13.344;2022-09-09T06:29:25;2.60;;;1.93;;
16770;SDS011;8503;52.472;13.344;2022-09-09T06:30:48;4.22;;;1.70;;
16770;SDS011;8503;52.472;13.344;2022-09-09T06:32:12;5.55;;;1.63;;
16770;SDS011;8503;52.472;13.344;2022-09-09T06:33:36;3.28;;;1.65;;
16770;SDS011;8503;52.472;13.344;2022-09-09T06:35:02;2.92;;;1.88;;
16770;SDS011;8503;52.472;13.344;2022-09-09T06:36:27;2.83;;;1.90;;
16770;SDS011;8503;52.472;13.344;2022-09-09T06:37:52;3.38;;;1.75;;
16770;SDS011;8503;52.472;13.344;2022-09-09T06:39:15;4.35;;;2.20;;
16770;SDS011;8503;52.472;13.344;2022-09-09T06:40:38;3.58;;;2.10;;
16770;SDS011;8503;52.472;13.344;2022-09-09T06:42:02;5.95;;;2.42;;
16770;SDS011;8503;52.472;13.344;2022-09-09T06:43:25;8.40;;;2.65;;
16770;SDS011;8503;52.472;13.344;2022-09-09T06:44:48;3.35;;;2.10;;
16770;SDS011;8503;52.472;13.344;2022-09-09T06:46:14;4.85;;;2.42;;
16770;SDS011;8503;52.472;13.344;2022-09-09T06:47:38;3.78;;;2.00;;
16770;SDS011;8503;52.472;13.344;2022-09-09T06:49:02;4.35;;;1.90;;
16770;SDS011;8503;52.472;13.344;2022-09-09T06:50:25;2.55;;;2.05;;
16770;SDS011;8503;52.472;13.344;2022-09-09T06:51:51;6.13;;;2.47;;
16770;SDS011;8503;52.472;13.344;2022-09-09T06:53:15;9.60;;;3.28;;
16770;SDS011;8503;52.472;13.344;2022-09-09T06:54:40;10.32;;;2.70;;
16770;SDS011;8503;52.472;13.344;2022-09-09T06:56:16;4.05;;;2.17;;
16770;SDS011;8503;52.472;13.344;2022-09-09T06:57:41;5.88;;;2.40;;
16770;SDS011;8503;52.472;13.344;2022-09-09T06:59:06;8.32;;;2.30;;
16770;SDS011;8503;52.472;13.344;2022-09-09T07:00:30;6.45;;;2.20;;
16770;SDS011;8503;52.472;13.344;2022-09-09T07:01:54;6.75;;;1.95;;
16770;SDS011;8503;52.472;13.344;2022-09-09T07:03:18;7.97;;;2.83;;
16770;SDS011;8503;52.472;13.344;2022-09-09T07:04:42;3.97;;;1.92;;
16770;SDS011;8503;52.472;13.344;2022-09-09T07:06:05;3.10;;;1.75;;
16770;SDS011;8503;52.472;13.344;2022-09-09T07:07:31;2.15;;;1.70;;
16770;SDS011;8503;52.472;13.344;2022-09-09T07:08:54;6.47;;;2.03;;
16770;SDS011;8503;52.472;13.344;2022-09-09T07:10:20;3.72;;;1.58;;
16770;SDS011;8503;52.472;13.344;2022-09-09T07:11:44;4.93;;;1.70;;
16770;SDS011;8503;52.472;13.344;2022-09-09T07:13:08;5.13;;;2.10;;
16770;SDS011;8503;52.472;13.344;2022-09-09T07:14:32;4.43;;;2.45;;
16770;SDS011;8503;52.472;13.344;2022-09-09T07:16:02;3.22;;;1.58;;
16770;SDS011;8503;52.472;13.344;2022-09-09T07:17:27;9.75;;;3.35;;
16770;SDS011;8503;52.472;13.344;2022-09-09T07:18:51;5.40;;;3.10;;
16770;SDS011;8503;52.472;13.344;2022-09-09T07:20:16;4.15;;;1.60;;
16770;SDS011;8503;52.472;13.344;2022-09-09T07:21:41;4.47;;;1.73;;
16770;SDS011;8503;52.472;13.344;2022-09-09T07:23:06;7.57;;;2.63;;
16770;SDS011;8503;52.472;13.344;2022-09-09T07:24:29;6.32;;;2.80;;
16770;SDS011;8503;52.472;13.344;2022-09-09T07:25:52;2.60;;;2.00;;
16770;SDS011;8503;52.472;13.344;2022-09-09T07:27:16;7.90;;;1.58;;
16770;SDS011;8503;52.472;13.344;2022-09-09T07:28:39;4.55;;;2.13;;
16770;SDS011;8503;52.472;13.344;2022-09-09T07:30:03;4.03;;;1.40;;
16770;SDS011;8503;52.472;13.344;2022-09-09T07:31:28;3.90;;;1.50;;
16770;SDS011;8503;52.472;13.344;2022-09-09T07:32:53;4.93;;;1.70;;
16770;SDS011;8503;52.472;13.344;2022-09-09T07:34:18;4.40;;;2.22;;
16770;SDS011;8503;52.472;13.344;2022-09-09T07:35:42;3.38;;;1.55;;
16770;SDS011;8503;52.472;13.344;2022-09-09T07:37:05;1.98;;;1.38;;
16770;SDS011;8503;52.472;13.344;2022-09-09T07:38:31;5.68;;;1.45;;
16770;SDS011;8503;52.472;13.344;2022-09-09T07:39:56;3.22;;;1.58;;
16770;SDS011;8503;52.472;13.344;2022-09-09T07:41:21;3.45;;;1.52;;
16770;SDS011;8503;52.472;13.344;2022-09-09T07:42:45;3.25;;;1.48;;
16770;SDS011;8503;52.472;13.344;2022-09-09T07:44:10;7.07;;;1.75;;
16770;SDS011;8503;52.472;13.344;2022-09-09T07:45:35;2.85;;;1.38;;
16770;SDS011;8503;52.472;13.344;2022-09-09T07:46:58;6.25;;;1.48;;
16770;SDS011;8503;52.472;13.344;2022-09-09T07:48:21;1.50;;;1.40;;
16770;SDS011;8503;52.472;13.344;2022-09-09T07:49:45;2.15;;;1.45;;
16770;SDS011;8503;52.472;13.344;2022-09-09T07:51:11;2.30;;;1.20;;
16770;SDS011;8503;52.472;13.344;2022-09-09T07:52:40;5.75;;;1.40;;
16770;SDS011;8503;52.472;13.344;2022-09-09T07:54:06;1.20;;;1.10;;
16770;SDS011;8503;52.472;13.344;2022-09-09T07:55:31;2.67;;;1.30;;
16770;SDS011;8503;52.472;13.344;2022-09-09T07:56:54;2.88;;;1.45;;
16770;SDS011;8503;52.472;13.344;2022-09-09T07:58:18;5.03;;;2.03;;
16770;SDS011;8503;52.472;13.344;2022-09-09T07:59:40;5.35;;;1.60;;
16770;SDS011;8503;52.472;13.344;2022-09-09T08:01:07;1.80;;;1.20;;
16770;SDS011;8503;52.472;13.344;2022-09-09T08:02:32;3.63;;;1.52;;
16770;SDS011;8503;52.472;13.344;2022-09-09T08:03:56;1.60;;;1.48;;
16770;SDS011;8503;52.472;13.344;2022-09-09T08:05:22;3.75;;;1.48;;
16770;SDS011;8503;52.472;13.344;2022-09-09T08:06:47;3.13;;;1.13;;
16770;SDS011;8503;52.472;13.344;2022-09-09T08:08:13;5.28;;;1.35;;
16770;SDS011;8503;52.472;13.344;2022-09-09T08:09:37;2.90;;;1.52;;
16770;SDS011;8503;52.472;13.344;2022-09-09T08:11:02;6.25;;;1.60;;
16770;SDS011;8503;52.472;13.344;2022-09-09T08:12:26;1.95;;;1.40;;
16770;SDS011;8503;52.472;13.344;2022-09-09T08:13:50;4.63;;;1.30;;
16770;SDS011;8503;52.472;13.344;2022-09-09T08:15:19;3.83;;;1.20;;
16770;SDS011;8503;52.472;13.344;2022-09-09T08:16:43;12.23;;;2.15;;
16770;SDS011;8503;52.472;13.344;2022-09-09T08:18:07;6.22;;;1.63;;
16770;SDS011;8503;52.472;13.344;2022-09-09T08:19:30;7.43;;;1.70;;
16770;SDS011;8503;52.472;13.344;2022-09-09T08:20:55;4.25;;;1.10;;
16770;SDS011;8503;52.472;13.344;2022-09-09T08:22:18;4.50;;;1.40;;
16770;SDS011;8503;52.472;13.344;2022-09-09T08:23:43;1.98;;;1.58;;
16770;SDS011;8503;52.472;13.344;2022-09-09T08:25:08;5.18;;;1.90;;
16770;SDS011;8503;52.472;13.344;2022-09-09T08:26:32;1.63;;;1.23;;
16770;SDS011;8503;52.472;13.344;2022-09-09T08:27:56;5.55;;;1.45;;
16770;SDS011;8503;52.472;13.344;2022-09-09T08:29:19;2.33;;;1.48;;
16770;SDS011;8503;52.472;13.344;2022-09-09T08:30:43;4.35;;;2.20;;
16770;SDS011;8503;52.472;13.344;2022-09-09T08:32:07;2.72;;;1.48;;
16770;SDS011;8503;52.472;13.344;2022-09-09T08:33:30;3.47;;;1.95;;